Time;durP1;ratioP1;P1;durP2;ratioP2;P2;SDS_P1;SDS_P2;PMS_P1;PMS_P2;Temp;Humidity;BMP_temperature;BMP_pressure;BME280_temperature;BME280_humidity;BME280_pressure;Samples;Min_cycle;Max_cycle;Signal;HPM_P1;HPM_P2
2022/07/15 00:02:07;;;;;;;3.38;1.15;;;;;;;15.82;49.35;101131.66;4995693;28;20584;-28
2022/07/15 00:04:33;;;;;;;2.78;1.15;;;;;;;15.81;49.54;101113.94;4980965;28;20537;-29
2022/07/15 00:06:59;;;;;;;2.00;1.08;;;;;;;15.77;49.62;101126.44;4976021;28;20117;-29
2022/07/15 00:10:13;;;;;;;1.30;1.13;;;;;;;15.71;49.59;101122.13;4994370;28;20109;-28
2022/07/15 00:12:09;;;;;;;1.23;1.08;;;;;;;15.66;49.64;101124.03;4994041;28;20062;-29
2022/07/15 00:14:35;;;;;;;0.95;0.95;;;;;;;15.67;49.91;101122.25;4993758;28;20442;-29
2022/07/15 00:17:01;;;;;;;1.25;1.15;;;;;;;15.62;49.77;101119.69;4973209;28;20041;-28
2022/07/15 00:19:27;;;;;;;1.60;1.05;;;;;;;15.57;49.82;101126.91;4973945;28;20030;-29
2022/07/15 00:21:52;;;;;;;2.45;1.00;;;;;;;15.55;50.17;101120.75;4957514;28;20394;-29
2022/07/15 00:24:17;;;;;;;3.65;1.10;;;;;;;15.51;50.03;101123.47;4974653;28;20441;-29
2022/07/15 00:26:43;;;;;;;1.52;1.08;;;;;;;15.49;50.16;101120.00;4974357;28;20440;-29
2022/07/15 00:29:08;;;;;;;1.38;1.00;;;;;;;15.46;50.04;101130.69;4975739;28;20030;-29
2022/07/15 00:31:33;;;;;;;3.08;1.17;;;;;;;15.42;50.18;101123.69;4973504;28;20031;-29
2022/07/15 00:33:59;;;;;;;0.93;0.93;;;;;;;15.37;50.24;101131.75;4974334;28;20031;-29
2022/07/15 00:36:24;;;;;;;1.92;1.20;;;;;;;15.33;50.04;101130.06;4973624;28;20066;-28
2022/07/15 00:38:49;;;;;;;1.10;1.08;;;;;;;15.30;50.22;101134.59;4973526;28;20113;-29
2022/07/15 00:41:15;;;;;;;1.92;1.10;;;;;;;15.27;50.21;101136.41;4984918;28;20077;-28
2022/07/15 00:43:40;;;;;;;1.80;1.05;;;;;;;15.24;50.25;101138.25;4993687;28;20030;-29
2022/07/15 00:46:06;;;;;;;1.00;0.90;;;;;;;15.21;50.25;101140.97;4992268;28;20038;-28
2022/07/15 00:48:32;;;;;;;1.58;1.08;;;;;;;15.18;50.35;101141.91;4994561;28;20026;-29
2022/07/15 00:50:58;;;;;;;1.40;1.30;;;;;;;15.11;50.34;101140.28;4986529;28;20029;-29
2022/07/15 00:53:26;;;;;;;2.00;1.23;;;;;;;15.05;50.28;101135.09;4959612;28;20046;-28
2022/07/15 00:55:53;;;;;;;1.95;1.20;;;;;;;15.04;50.30;101133.34;4976506;28;20049;-28
2022/07/15 00:58:24;;;;;;;1.27;1.10;;;;;;;14.98;50.36;101135.22;4959194;28;20026;-28
2022/07/15 01:00:50;;;;;;;1.38;1.13;;;;;;;14.98;50.41;101135.22;4973632;28;20105;-31
2022/07/15 01:03:17;;;;;;;1.20;1.10;;;;;;;14.91;50.51;101128.28;4984200;28;20600;-31
2022/07/15 01:05:43;;;;;;;2.63;1.10;;;;;;;14.87;50.49;101147.81;4994726;28;20081;-29
2022/07/15 01:08:10;;;;;;;1.90;1.42;;;;;;;14.83;50.50;101140.81;4994547;28;20034;-30
2022/07/15 01:10:36;;;;;;;1.30;1.20;;;;;;;14.80;50.77;101140.91;4993896;28;20026;-30
2022/07/15 01:13:02;;;;;;;1.48;1.20;;;;;;;14.81;50.78;101142.66;4976081;28;20157;-31
2022/07/15 01:15:28;;;;;;;5.82;1.20;;;;;;;14.80;50.83;101138.25;4977171;28;20473;-32
2022/07/15 01:17:53;;;;;;;1.23;1.13;;;;;;;14.74;50.66;101147.19;4974822;28;20503;-31
2022/07/15 01:20:19;;;;;;;1.00;1.00;;;;;;;14.72;50.97;101141.91;4978847;28;20510;-31
2022/07/15 01:22:47;;;;;;;1.60;1.00;;;;;;;14.72;50.95;101143.66;4975361;28;20027;-32
2022/07/15 01:25:14;;;;;;;1.17;1.10;;;;;;;14.67;50.85;101146.41;4976114;28;20503;-31
2022/07/15 01:27:41;;;;;;;1.52;1.15;;;;;;;14.67;51.02;101146.41;4976241;28;20022;-31
2022/07/15 01:30:07;;;;;;;1.40;1.30;;;;;;;14.65;50.89;101148.22;4964505;28;20034;-31
2022/07/15 01:32:33;;;;;;;1.75;1.50;;;;;;;14.63;51.20;101150.91;4997177;28;20022;-32
2022/07/15 01:34:59;;;;;;;2.88;1.55;;;;;;;14.62;51.20;101150.94;4995205;28;20062;-30
2022/07/15 01:37:24;;;;;;;2.08;1.58;;;;;;;14.60;51.25;101150.94;4980122;28;20069;-29
2022/07/15 01:39:49;;;;;;;2.58;1.48;;;;;;;14.58;51.19;101152.75;4972242;28;20026;-29
2022/07/15 01:42:15;;;;;;;1.92;1.35;;;;;;;14.61;51.52;101151.84;4973179;28;20023;-29
2022/07/15 01:44:40;;;;;;;1.90;1.55;;;;;;;14.55;51.59;101159.91;4972984;28;20027;-29
2022/07/15 01:47:06;;;;;;;1.50;1.30;;;;;;;14.53;51.51;101151.06;4973159;28;20027;-29
2022/07/15 01:49:31;;;;;;;2.42;1.50;;;;;;;14.54;51.78;101152.84;4978130;28;20023;-29
2022/07/15 01:51:58;;;;;;;3.25;1.60;;;;;;;14.60;51.97;101166.88;4974722;28;20458;-29
2022/07/15 01:54:26;;;;;;;1.35;1.15;;;;;;;14.54;51.51;101166.13;4973068;28;20030;-29
2022/07/15 01:56:52;;;;;;;1.55;1.45;;;;;;;14.51;51.72;101167.06;4972028;28;20055;-29
2022/07/15 01:59:18;;;;;;;2.17;1.58;;;;;;;14.49;52.01;101164.44;4971905;28;20026;-29
2022/07/15 02:01:44;;;;;;;2.28;1.38;;;;;;;14.45;51.78;101165.38;4971904;28;20030;-29
2022/07/15 02:04:11;;;;;;;2.05;1.58;;;;;;;14.39;51.73;101165.47;4977673;28;20026;-29
2022/07/15 02:06:36;;;;;;;1.45;1.35;;;;;;;14.35;51.74;101163.78;4992017;28;20026;-29
2022/07/15 02:09:02;;;;;;;2.28;1.70;;;;;;;14.33;51.58;101158.50;4996451;28;20022;-29
2022/07/15 02:11:28;;;;;;;1.73;1.30;;;;;;;14.30;51.94;101163.00;4995355;28;20019;-29
2022/07/15 02:13:59;;;;;;;1.40;1.30;;;;;;;14.26;52.11;101161.28;4996143;28;20250;-29
2022/07/15 02:16:28;;;;;;;1.67;1.58;;;;;;;14.27;52.10;101163.03;4995238;28;20022;-29
2022/07/15 02:18:53;;;;;;;2.65;1.70;;;;;;;14.24;52.27;101159.53;4995073;28;20027;-29
2022/07/15 02:21:19;;;;;;;1.45;1.35;;;;;;;14.22;52.07;101158.69;4995049;28;20031;-29
2022/07/15 02:23:44;;;;;;;1.70;1.60;;;;;;;14.20;52.37;101157.81;4994712;28;20069;-29
2022/07/15 02:26:09;;;;;;;2.28;1.58;;;;;;;14.16;52.12;101158.78;4994821;28;20408;-31
2022/07/15 02:28:35;;;;;;;1.98;1.20;;;;;;;14.11;52.59;101168.59;4995723;28;20033;-29
2022/07/15 02:31:01;;;;;;;2.35;1.50;;;;;;;14.07;52.46;101162.47;4994930;28;20102;-29
2022/07/15 02:33:26;;;;;;;1.92;1.83;;;;;;;14.06;52.53;101175.72;4978474;28;20044;-29
2022/07/15 02:35:51;;;;;;;2.42;1.48;;;;;;;14.03;52.65;101171.38;4977727;28;20032;-29
2022/07/15 02:38:17;;;;;;;1.58;1.40;;;;;;;14.01;52.71;101180.25;4994504;28;20061;-29
2022/07/15 02:40:43;;;;;;;2.78;1.80;;;;;;;14.01;52.97;101172.28;4994623;28;20037;-29
2022/07/15 02:43:09;;;;;;;2.10;1.50;;;;;;;13.98;52.69;101181.19;4994387;28;20050;-29
2022/07/15 02:45:36;;;;;;;1.98;1.75;;;;;;;13.94;52.83;101175.03;4994309;28;20038;-29
2022/07/15 02:48:02;;;;;;;2.08;1.75;;;;;;;13.97;53.16;101182.06;4994307;28;20033;-29
2022/07/15 02:50:28;;;;;;;4.70;1.70;;;;;;;13.97;53.25;101184.69;4991133;28;20105;-29
2022/07/15 02:52:53;;;;;;;2.78;1.20;;;;;;;13.92;53.18;101184.78;4974504;28;20031;-29
2022/07/15 02:55:19;;;;;;;1.92;1.40;;;;;;;13.92;52.97;101187.44;4975893;28;20033;-29
2022/07/15 02:57:44;;;;;;;4.50;1.60;;;;;;;13.89;53.15;101190.13;4975904;28;20023;-29
2022/07/15 03:00:13;;;;;;;2.05;1.45;;;;;;;13.85;53.17;101201.69;4975147;28;20041;-29
2022/07/15 03:02:39;;;;;;;2.65;1.77;;;;;;;13.89;53.92;101198.09;4974896;28;20459;-29
2022/07/15 03:05:06;;;;;;;1.42;1.30;;;;;;;13.86;53.37;101203.44;4974777;28;20065;-29
2022/07/15 03:07:32;;;;;;;3.65;1.50;;;;;;;13.82;53.47;101199.06;4982731;28;20034;-29
2022/07/15 03:09:57;;;;;;;2.00;1.38;;;;;;;13.81;53.36;101208.78;4994201;28;20084;-29
2022/07/15 03:12:22;;;;;;;1.52;1.38;;;;;;;13.77;53.46;101201.78;4993840;28;20014;-29
2022/07/15 03:14:48;;;;;;;1.65;1.52;;;;;;;13.79;53.96;101199.13;4993899;28;20038;-29
2022/07/15 03:17:13;;;;;;;2.17;1.98;;;;;;;13.82;54.22;101209.69;4994025;28;20068;-29
2022/07/15 03:19:38;;;;;;;2.83;1.30;;;;;;;13.84;53.92;101207.91;4995264;28;20449;-29
2022/07/15 03:22:04;;;;;;;3.97;1.63;;;;;;;13.84;54.32;101216.72;4988712;28;20058;-29
2022/07/15 03:24:30;;;;;;;1.80;1.50;;;;;;;13.80;54.71;101211.47;4976657;28;20023;-29
2022/07/15 03:26:56;;;;;;;4.25;1.92;;;;;;;13.78;54.64;101210.63;4976828;28;20022;-29
2022/07/15 03:29:22;;;;;;;2.10;1.42;;;;;;;13.77;54.72;101217.69;4976444;28;20035;-29
2022/07/15 03:31:47;;;;;;;1.50;1.40;;;;;;;13.73;54.91;101227.47;4976189;28;20594;-29
2022/07/15 03:34:13;;;;;;;2.55;1.67;;;;;;;13.69;55.03;101225.75;4975972;28;20569;-32
2022/07/15 03:36:40;;;;;;;2.08;1.50;;;;;;;13.67;55.16;101235.50;4968077;28;20073;-29
2022/07/15 03:39:06;;;;;;;3.33;1.73;;;;;;;13.67;55.48;101232.84;4994508;28;20022;-29
2022/07/15 03:41:33;;;;;;;2.30;2.03;;;;;;;13.66;54.83;101236.41;4994196;28;20056;-29
2022/07/15 03:43:59;;;;;;;3.35;1.65;;;;;;;13.66;54.82;101233.75;4994497;28;20046;-29
2022/07/15 03:46:25;;;;;;;2.17;1.90;;;;;;;13.62;54.43;101233.81;4996329;28;20033;-29
2022/07/15 03:48:51;;;;;;;1.95;1.75;;;;;;;13.59;54.58;101240.03;4994966;28;20113;-29
2022/07/15 03:51:17;;;;;;;1.88;1.73;;;;;;;13.59;54.43;101245.31;4994716;28;20114;-29
2022/07/15 03:53:42;;;;;;;5.32;1.77;;;;;;;13.56;54.34;101240.06;4995660;28;20038;-29
2022/07/15 03:56:08;;;;;;;3.85;2.08;;;;;;;13.54;54.29;101249.81;4979355;28;20382;-29
2022/07/15 03:58:33;;;;;;;1.80;1.63;;;;;;;13.54;54.45;101240.06;4996369;28;20026;-29
2022/07/15 04:00:59;;;;;;;3.08;1.65;;;;;;;13.50;54.53;101245.44;4995022;28;20022;-29
2022/07/15 04:03:24;;;;;;;2.60;1.33;;;;;;;13.47;54.47;101247.19;4995121;28;20036;-29
2022/07/15 04:05:49;;;;;;;1.55;1.40;;;;;;;13.46;54.67;101253.41;4996953;28;20037;-29
2022/07/15 04:08:15;;;;;;;1.60;1.40;;;;;;;13.47;54.47;101247.19;4997141;28;20083;-29
2022/07/15 04:10:40;;;;;;;2.13;1.52;;;;;;;13.49;54.47;101235.72;4994113;28;20045;-29
2022/07/15 04:13:07;;;;;;;4.95;1.80;;;;;;;13.51;54.66;101247.19;4994040;28;20023;-29
2022/07/15 04:15:32;;;;;;;2.33;2.10;;;;;;;13.53;54.42;101248.03;4994837;28;20184;-29
2022/07/15 04:17:58;;;;;;;1.80;1.67;;;;;;;13.54;54.77;101247.16;4995563;28;20474;-29
2022/07/15 04:20:24;;;;;;;1.63;1.48;;;;;;;13.54;54.44;101244.53;4995994;28;20053;-29
2022/07/15 04:22:49;;;;;;;2.28;2.13;;;;;;;13.55;54.80;101244.50;4997154;28;20023;-29
2022/07/15 04:25:17;;;;;;;2.03;1.50;;;;;;;13.57;54.63;101242.69;4997033;28;20041;-29
2022/07/15 04:27:43;;;;;;;3.08;1.83;;;;;;;13.62;54.64;101250.59;4988227;28;20029;-29
2022/07/15 04:30:10;;;;;;;2.92;1.40;;;;;;;13.60;54.87;101242.66;4972746;28;20034;-29
2022/07/15 04:32:36;;;;;;;1.90;1.70;;;;;;;13.63;54.64;101252.34;4972737;28;20026;-29
2022/07/15 04:35:02;;;;;;;2.50;1.83;;;;;;;13.63;55.52;101257.63;4992069;28;20044;-29
2022/07/15 04:37:27;;;;;;;3.78;1.90;;;;;;;13.65;55.77;101254.97;4976130;28;20122;-29
2022/07/15 04:39:55;;;;;;;2.80;1.45;;;;;;;13.69;55.71;101261.97;4995393;28;20109;-29
2022/07/15 04:42:21;;;;;;;1.63;1.50;;;;;;;13.70;55.58;101258.44;4993149;28;20105;-29
2022/07/15 04:44:47;;;;;;;3.05;1.83;;;;;;;13.71;56.06;101269.00;4993502;28;20109;-29
2022/07/15 04:47:12;;;;;;;1.80;1.45;;;;;;;13.75;56.25;101271.63;4993525;28;20030;-29
2022/07/15 04:52:24;;;;;;;3.35;1.45;;;;;;;13.83;55.92;101262.69;4973738;28;20486;-29
2022/07/15 04:54:50;;;;;;;4.88;2.08;;;;;;;13.85;56.04;101257.38;4977169;28;20038;-29
2022/07/15 04:57:15;;;;;;;5.00;1.75;;;;;;;13.91;55.85;101262.56;4973617;28;20034;-29
2022/07/15 04:59:40;;;;;;;1.92;1.35;;;;;;;13.94;56.05;101262.53;4973396;28;20034;-29
2022/07/15 05:02:05;;;;;;;2.00;1.80;;;;;;;13.93;55.60;101260.78;4978955;28;20486;-29
2022/07/15 05:04:32;;;;;;;2.10;1.70;;;;;;;14.01;55.94;101263.34;4991491;28;20109;-29
2022/07/15 05:06:57;;;;;;;3.00;1.67;;;;;;;14.05;55.69;101267.72;4975171;28;20501;-29
2022/07/15 05:09:23;;;;;;;3.65;1.80;;;;;;;14.14;56.40;101274.63;4993369;28;20038;-29
2022/07/15 05:11:48;;;;;;;1.52;1.42;;;;;;;14.16;56.69;101277.25;4990821;28;20023;-29
2022/07/15 05:14:13;;;;;;;3.17;1.90;;;;;;;14.20;56.40;101276.31;4975863;28;20306;-29
2022/07/15 05:16:39;;;;;;;2.85;1.88;;;;;;;14.27;56.21;101277.13;4993264;28;20761;-29
2022/07/15 05:19:04;;;;;;;3.00;1.98;;;;;;;14.29;56.61;101284.16;4991865;28;20068;-29
2022/07/15 05:21:29;;;;;;;3.67;1.70;;;;;;;14.39;58.30;101284.91;4992260;28;20018;-29
2022/07/15 05:23:55;;;;;;;4.93;2.13;;;;;;;14.40;56.35;101283.13;4992833;28;20426;-29
2022/07/15 05:26:20;;;;;;;2.53;1.80;;;;;;;14.43;56.93;101291.91;4981512;28;20105;-29
2022/07/15 05:28:46;;;;;;;3.50;2.40;;;;;;;14.47;56.74;101288.31;4972277;28;20022;-29
2022/07/15 05:31:11;;;;;;;4.35;1.75;;;;;;;14.54;57.92;101293.53;4982974;28;20149;-29
2022/07/15 05:33:37;;;;;;;3.33;1.92;;;;;;;14.57;58.48;101290.81;4993162;28;20037;-29
2022/07/15 05:36:02;;;;;;;5.00;1.95;;;;;;;14.64;58.83;101295.09;4981565;28;20501;-29
2022/07/15 05:38:28;;;;;;;3.75;2.00;;;;;;;14.67;57.95;101295.06;4973361;28;20031;-29
2022/07/15 05:40:53;;;;;;;2.45;1.88;;;;;;;14.73;57.61;101297.63;4973421;28;20026;-29
2022/07/15 05:43:19;;;;;;;4.45;2.30;;;;;;;14.77;58.15;101301.13;4976424;28;20041;-29
2022/07/15 05:45:45;;;;;;;5.35;1.92;;;;;;;14.85;58.09;101298.34;4977388;28;20035;-29
2022/07/15 05:48:10;;;;;;;5.32;2.45;;;;;;;14.91;58.17;101303.56;4960119;28;20065;-29
2022/07/15 05:50:35;;;;;;;4.70;2.05;;;;;;;14.95;57.84;101297.31;4984124;28;20102;-29
2022/07/15 05:53:01;;;;;;;3.17;1.92;;;;;;;15.02;57.37;101314.00;4989056;28;20117;-29
2022/07/15 05:55:26;;;;;;;3.85;2.22;;;;;;;15.07;57.85;101309.47;4995254;28;20117;-29
2022/07/15 05:57:52;;;;;;;5.72;1.88;;;;;;;15.13;57.94;101309.38;4996589;28;20022;-29
2022/07/15 06:00:17;;;;;;;4.15;1.85;;;;;;;15.18;57.36;101309.31;4996073;28;20404;-29
2022/07/15 06:02:43;;;;;;;5.28;1.65;;;;;;;15.24;57.96;101316.28;4996631;28;20014;-29
2022/07/15 06:05:08;;;;;;;3.83;2.05;;;;;;;15.30;57.16;101315.28;4996532;28;20029;-29
2022/07/15 06:07:35;;;;;;;3.97;2.10;;;;;;;15.35;57.62;101308.09;4986876;28;20122;-29
2022/07/15 06:10:02;;;;;;;3.22;2.03;;;;;;;15.41;57.40;101312.44;4977025;28;20106;-29
2022/07/15 06:12:27;;;;;;;4.47;2.38;;;;;;;15.47;57.81;101318.50;4993496;28;20026;-29
2022/07/15 06:14:53;;;;;;;3.60;2.03;;;;;;;15.53;57.46;101306.84;4993717;28;20077;-32
2022/07/15 06:17:18;;;;;;;5.05;1.70;;;;;;;15.58;57.05;101312.09;5010620;28;20034;-32
2022/07/15 06:19:43;;;;;;;3.67;2.30;;;;;;;15.61;56.95;101314.69;4990776;28;20035;-32
2022/07/15 06:22:09;;;;;;;3.60;1.77;;;;;;;15.67;57.05;101311.91;4994526;28;20110;-31
2022/07/15 06:24:34;;;;;;;4.55;2.30;;;;;;;15.70;56.42;101313.66;4978206;28;20167;-31
2022/07/15 06:26:59;;;;;;;9.73;2.40;;;;;;;15.73;56.69;101314.44;4995706;28;20026;-32
2022/07/15 06:29:25;;;;;;;7.53;2.10;;;;;;;15.77;56.28;101316.13;4995962;28;20019;-32
2022/07/15 06:31:51;;;;;;;2.17;1.70;;;;;;;15.83;56.43;101324.88;4996127;28;20033;-32
2022/07/15 06:34:17;;;;;;;7.53;1.60;;;;;;;15.87;56.41;101313.28;4971903;28;20506;-32
2022/07/15 06:36:42;;;;;;;6.85;1.40;;;;;;;15.94;55.89;101311.38;4975521;28;20035;-32
2022/07/15 06:39:08;;;;;;;5.53;1.88;;;;;;;15.99;55.48;101315.72;4981763;28;20034;-31
2022/07/15 06:41:33;;;;;;;3.13;1.33;;;;;;;16.03;54.83;101309.41;4995641;28;20022;-32
2022/07/15 06:44:01;;;;;;;2.88;1.40;;;;;;;16.09;54.58;101311.06;4995192;28;20030;-31
2022/07/15 06:46:26;;;;;;;2.17;1.40;;;;;;;16.15;54.50;101318.03;4995714;28;20037;-32
2022/07/15 06:48:51;;;;;;;6.10;1.52;;;;;;;16.19;54.15;101309.06;4993920;28;20030;-32
2022/07/15 06:51:17;;;;;;;2.17;1.13;;;;;;;16.26;54.01;101313.34;4988175;28;20030;-32
2022/07/15 06:53:42;;;;;;;1.77;1.13;;;;;;;16.31;53.93;101307.03;5010207;28;20041;-32
2022/07/15 06:56:08;;;;;;;5.10;1.27;;;;;;;16.35;53.39;101316.72;4993956;28;20038;-31
2022/07/15 06:58:34;;;;;;;2.47;1.05;;;;;;;16.39;53.18;101321.94;4994531;28;20030;-31
2022/07/15 07:00:59;;;;;;;3.70;1.33;;;;;;;16.45;52.72;101315.59;4995424;28;20391;-32
2022/07/15 07:03:25;;;;;;;6.00;1.55;;;;;;;16.52;52.99;101314.53;4995134;28;20037;-32
2022/07/15 07:05:50;;;;;;;3.65;1.38;;;;;;;16.58;52.79;101324.16;4995441;28;20027;-32
2022/07/15 07:08:16;;;;;;;2.05;1.08;;;;;;;16.64;52.17;101331.13;4994196;28;20022;-32
2022/07/15 07:10:41;;;;;;;2.53;1.13;;;;;;;16.70;52.07;101332.78;4992234;28;20038;-31
2022/07/15 07:13:06;;;;;;;3.45;1.10;;;;;;;16.72;52.26;101326.50;4958782;28;20500;-32
2022/07/15 07:15:32;;;;;;;1.20;0.90;;;;;;;16.81;52.33;101325.41;4958731;28;20031;-32
2022/07/15 07:17:57;;;;;;;3.17;1.00;;;;;;;16.87;51.76;101329.69;4977441;28;20038;-32
2022/07/15 07:20:22;;;;;;;3.35;1.25;;;;;;;16.95;51.58;101325.03;4995691;28;20033;-31
2022/07/15 07:22:48;;;;;;;4.57;1.33;;;;;;;17.03;51.88;101325.72;4995353;28;20191;-32
2022/07/15 07:25:13;;;;;;;3.65;1.08;;;;;;;17.13;51.79;101336.16;4995190;28;20449;-32
2022/07/15 07:27:39;;;;;;;2.17;1.00;;;;;;;17.20;51.57;101337.75;4984907;28;20493;-32
2022/07/15 07:30:05;;;;;;;4.55;1.17;;;;;;;17.26;51.29;101337.59;4997465;28;20029;-32
2022/07/15 07:32:31;;;;;;;2.30;1.17;;;;;;;17.35;51.15;101340.91;5015095;28;20397;-29
2022/07/15 07:34:57;;;;;;;2.75;0.90;;;;;;;17.40;51.28;101331.00;5013899;28;20029;-32
2022/07/15 07:37:22;;;;;;;5.50;1.63;;;;;;;17.40;51.01;101329.22;4979592;28;20351;-32
2022/07/15 07:39:48;;;;;;;1.63;0.90;;;;;;;17.52;51.21;101333.34;4977767;28;20120;-32
2022/07/15 07:42:13;;;;;;;4.20;1.17;;;;;;;17.59;50.85;101333.16;5005180;28;20036;-32
2022/07/15 07:44:39;;;;;;;1.23;0.85;;;;;;;17.65;50.87;101333.00;4997121;28;20034;-32
2022/07/15 07:47:04;;;;;;;2.75;1.10;;;;;;;17.71;50.82;101330.16;4980981;28;20030;-32
2022/07/15 07:49:30;;;;;;;1.50;0.90;;;;;;;17.79;50.79;101328.16;4996996;28;20025;-31
2022/07/15 07:51:55;;;;;;;1.58;0.70;;;;;;;17.88;49.93;101323.44;5014478;28;20483;-32
2022/07/15 07:54:21;;;;;;;2.08;0.90;;;;;;;18.01;49.70;101329.31;5014616;28;20108;-32
2022/07/15 07:56:46;;;;;;;2.38;0.80;;;;;;;18.09;49.40;101332.63;5003686;28;20030;-32
2022/07/15 07:59:12;;;;;;;4.57;1.00;;;;;;;18.14;49.48;101319.16;4995483;28;20036;-32
2022/07/15 08:01:37;;;;;;;1.90;1.20;;;;;;;18.20;49.68;101324.28;4977383;28;20491;-32
2022/07/15 08:04:03;;;;;;;3.38;1.08;;;;;;;18.32;49.50;101323.06;4995703;28;20077;-31
2022/07/15 08:06:29;;;;;;;4.78;1.80;;;;;;;18.42;49.44;101328.97;5013669;28;20501;-32
2022/07/15 08:08:54;;;;;;;5.20;1.27;;;;;;;18.55;49.45;101325.00;5014516;28;20061;-32
2022/07/15 08:11:20;;;;;;;1.73;0.82;;;;;;;18.59;48.63;101315.97;5001916;28;20090;-32
2022/07/15 08:13:46;;;;;;;4.53;1.15;;;;;;;18.70;48.74;101314.72;4976749;28;20030;-32
2022/07/15 08:16:12;;;;;;;4.35;1.35;;;;;;;18.79;48.67;101311.75;4994119;28;20034;-29
2022/07/15 08:18:37;;;;;;;2.15;0.90;;;;;;;18.85;48.17;101311.53;4976842;28;20030;-29
2022/07/15 08:21:04;;;;;;;3.63;1.00;;;;;;;18.95;47.79;101305.88;4976938;28;20030;-29
2022/07/15 08:23:32;;;;;;;6.32;0.95;;;;;;;19.02;47.77;101315.44;4976257;28;20109;-29
2022/07/15 08:25:58;;;;;;;2.60;0.95;;;;;;;19.09;47.61;101314.34;4990573;28;20549;-29
2022/07/15 08:28:24;;;;;;;4.65;1.05;;;;;;;19.21;47.87;101312.16;4996296;28;20064;-29
2022/07/15 08:30:49;;;;;;;4.25;0.90;;;;;;;19.30;47.84;101322.50;5013634;28;20053;-29
2022/07/15 08:33:15;;;;;;;3.45;0.90;;;;;;;19.39;47.55;101312.41;5006679;28;20095;-29
2022/07/15 08:35:41;;;;;;;4.65;1.10;;;;;;;19.49;47.66;101309.38;5012787;28;20030;-29
2022/07/15 08:38:08;;;;;;;2.75;0.95;;;;;;;19.60;47.65;101314.31;4987679;28;20072;-29
2022/07/15 08:40:35;;;;;;;1.73;1.00;;;;;;;19.72;47.07;101312.09;5002196;28;20583;-29
2022/07/15 08:43:00;;;;;;;2.97;0.63;;;;;;;19.81;46.87;101306.38;4995634;28;20029;-29
2022/07/15 08:45:26;;;;;;;1.23;0.95;;;;;;;19.87;46.72;101314.19;5013544;28;20021;-29
2022/07/15 08:47:52;;;;;;;1.73;1.00;;;;;;;19.91;46.24;101316.75;5011792;28;20073;-29
2022/07/15 08:50:18;;;;;;;3.63;1.00;;;;;;;19.96;46.42;101320.13;5012884;28;20469;-32
2022/07/15 08:52:45;;;;;;;1.13;0.77;;;;;;;20.01;46.08;101318.19;4994065;28;20410;-32
2022/07/15 08:55:12;;;;;;;0.77;0.75;;;;;;;20.04;45.91;101317.19;5012822;28;20048;-32
2022/07/15 08:57:37;;;;;;;2.15;0.55;;;;;;;20.07;45.86;101325.97;5011765;28;20060;-32
2022/07/15 09:00:07;;;;;;;2.08;0.80;;;;;;;20.08;45.57;101329.53;4994721;28;20029;-32
2022/07/15 09:02:33;;;;;;;1.20;0.70;;;;;;;20.13;45.81;101325.75;5012486;28;20029;-32
2022/07/15 09:05:26;;;;;;;1.15;0.68;;;;;;;20.16;45.42;101318.50;4995100;28;20050;-30
2022/07/15 09:07:53;;;;;;;2.88;0.80;;;;;;;20.22;45.37;101324.50;5012067;28;20025;-30
2022/07/15 09:10:19;;;;;;;1.23;0.65;;;;;;;20.29;45.15;101317.09;5012209;28;20049;-30
2022/07/15 09:12:48;;;;;;;1.77;0.90;;;;;;;20.33;44.88;101316.03;5008407;28;20513;-31
2022/07/15 09:15:34;;;;;;;1.48;0.50;;;;;;;20.38;44.92;101315.88;5012082;28;20025;-31
2022/07/15 09:18:12;;;;;;;1.75;0.77;;;;;;;20.39;44.63;101312.25;4997459;28;20026;-30
2022/07/15 09:20:39;;;;;;;2.05;1.13;;;;;;;20.46;44.47;101319.09;5007185;28;20026;-30
2022/07/15 09:23:05;;;;;;;2.58;0.77;;;;;;;20.49;43.85;101321.66;4972630;28;20498;-30
2022/07/15 09:25:35;;;;;;;2.97;0.93;;;;;;;20.53;43.96;101326.91;4971902;28;20059;-30
2022/07/15 09:28:06;;;;;;;1.17;0.75;;;;;;;20.56;43.99;101316.91;4974067;28;20031;-30
2022/07/15 09:33:41;;;;;;;3.70;0.50;;;;;;;20.58;43.95;101317.69;4991115;28;20165;-31
2022/07/15 09:36:06;;;;;;;2.42;0.75;;;;;;;20.60;43.74;101323.88;4975741;28;20027;-31
2022/07/15 09:38:42;;;;;;;0.90;0.43;;;;;;;20.73;44.32;101315.31;4971408;28;20038;-30
2022/07/15 09:41:32;;;;;;;3.28;0.55;;;;;;;20.82;44.00;101312.28;4979618;28;20627;-31
2022/07/15 09:44:07;;;;;;;1.83;0.80;;;;;;;20.91;43.86;101318.22;4986242;28;20034;-30
2022/07/15 09:46:47;;;;;;;1.63;0.60;;;;;;;20.94;43.72;101313.56;4991114;28;20031;-31
2022/07/15 09:49:22;;;;;;;0.80;0.50;;;;;;;20.99;43.33;101313.38;4992410;28;20022;-31
2022/07/15 09:51:50;;;;;;;0.80;0.80;;;;;;;21.00;43.45;101321.38;4976978;28;20321;-32
2022/07/15 09:54:16;;;;;;;2.03;0.80;;;;;;;21.00;43.43;101325.84;4972827;28;20109;-30
2022/07/15 09:56:42;;;;;;;1.85;0.60;;;;;;;21.04;43.43;101316.72;4988864;28;20397;-30
2022/07/15 09:59:08;;;;;;;5.43;1.10;;;;;;;21.10;43.51;101318.28;4990889;28;20529;-31
2022/07/15 10:01:35;;;;;;;5.38;0.80;;;;;;;21.03;42.97;101320.38;4991877;28;20117;-32
2022/07/15 10:04:00;;;;;;;2.15;0.70;;;;;;;21.06;43.05;101322.91;4991853;28;20054;-31
2022/07/15 10:06:27;;;;;;;1.98;0.65;;;;;;;21.16;43.44;101320.72;4965430;28;20058;-31
2022/07/15 10:08:53;;;;;;;0.68;0.50;;;;;;;21.16;42.88;101320.72;4973891;28;20034;-31
2022/07/15 10:11:19;;;;;;;1.15;0.52;;;;;;;21.19;42.86;101314.31;4973022;28;20150;-31
2022/07/15 10:14:02;;;;;;;1.48;0.93;;;;;;;21.26;43.38;101311.31;4982638;28;20487;-32
2022/07/15 10:16:46;;;;;;;3.30;1.33;;;;;;;21.40;42.98;101317.88;4991995;28;20029;-31
2022/07/15 10:19:19;;;;;;;1.90;0.65;;;;;;;21.50;42.84;101315.63;4990572;28;20033;-31
2022/07/15 10:21:56;;;;;;;1.25;0.60;;;;;;;21.53;42.68;101315.50;4991031;28;20053;-31
2022/07/15 10:24:33;;;;;;;1.85;1.02;;;;;;;21.58;42.41;101312.63;4992200;28;20026;-31
2022/07/15 10:27:27;;;;;;;1.65;1.08;;;;;;;21.63;42.53;101318.63;4973760;28;20034;-31
2022/07/15 10:29:54;;;;;;;1.33;0.98;;;;;;;21.69;42.29;101314.81;4973984;28;20058;-31
2022/07/15 10:32:19;;;;;;;2.08;0.75;;;;;;;21.77;42.03;101312.66;4976072;28;20109;-31
2022/07/15 10:34:44;;;;;;;2.75;0.90;;;;;;;21.86;41.92;101314.94;4974869;28;20133;-31
2022/07/15 10:37:11;;;;;;;1.80;0.70;;;;;;;21.98;40.94;101316.19;4975680;28;20098;-31
2022/07/15 10:39:46;;;;;;;1.42;0.80;;;;;;;22.01;41.17;101309.78;4978008;28;20030;-31
2022/07/15 10:42:12;;;;;;;3.92;0.77;;;;;;;22.05;41.17;101306.03;4975936;28;20388;-31
2022/07/15 10:44:48;;;;;;;3.30;0.80;;;;;;;22.11;41.28;101312.91;4976091;28;20030;-31
2022/07/15 10:47:14;;;;;;;3.03;0.85;;;;;;;22.12;40.95;101318.22;4977097;28;20023;-31
2022/07/15 10:49:40;;;;;;;1.97;0.83;;;;;;;22.12;40.61;101315.53;4975697;28;20085;-31
2022/07/15 10:52:12;;;;;;;1.80;0.98;;;;;;;22.06;40.62;101315.81;4993271;28;20296;-31
2022/07/15 10:54:39;;;;;;;3.13;1.08;;;;;;;22.02;40.92;101317.78;4988597;28;20027;-31
2022/07/15 10:57:04;;;;;;;2.00;0.70;;;;;;;22.00;41.09;101313.41;4975931;28;20238;-30
2022/07/15 10:59:35;;;;;;;1.65;0.85;;;;;;;22.02;41.06;101314.22;4974164;28;20023;-31
2022/07/15 11:02:01;;;;;;;0.88;0.60;;;;;;;22.01;41.01;101309.78;4974427;28;20029;-31
2022/07/15 11:04:31;;;;;;;1.95;0.88;;;;;;;22.20;39.94;101315.13;4975496;28;20027;-31
2022/07/15 11:07:07;;;;;;;0.60;0.60;;;;;;;22.30;40.14;101308.38;4975273;28;20046;-31
2022/07/15 11:09:52;;;;;;;1.20;0.85;;;;;;;22.37;39.67;101306.25;4976360;28;20026;-32
2022/07/15 11:12:20;;;;;;;0.60;0.60;;;;;;;22.38;40.01;101307.16;4994104;28;20038;-29
2022/07/15 11:14:48;;;;;;;1.60;0.88;;;;;;;22.37;39.99;101306.25;5009700;28;20482;-29
2022/07/15 11:17:17;;;;;;;3.38;0.85;;;;;;;22.41;39.60;101298.94;5012972;28;20045;-29
2022/07/15 11:19:46;;;;;;;2.03;1.00;;;;;;;22.42;39.82;101298.88;5014534;28;20045;-29
2022/07/15 11:22:11;;;;;;;1.92;0.70;;;;;;;22.50;38.90;101297.59;5014452;28;20414;-29
2022/07/15 11:24:37;;;;;;;3.15;0.60;;;;;;;22.54;40.27;101296.50;5014451;28;20018;-29
2022/07/15 11:27:02;;;;;;;2.67;0.88;;;;;;;22.56;39.96;101308.06;5014265;28;20470;-29
2022/07/15 11:29:46;;;;;;;1.90;0.70;;;;;;;22.60;40.18;101284.63;4994762;28;20150;-29